createdAt,value
2018-01-18T00:01:23.299Z,4.14
2018-01-18T00:03:51.655Z,4.17
2018-01-18T00:06:20.020Z,4.22
2018-01-18T00:08:48.413Z,4.24
2018-01-18T00:11:16.768Z,4.24
2018-01-18T00:13:45.172Z,4.24
2018-01-18T00:16:13.569Z,4.31
2018-01-18T00:18:41.940Z,4.30
2018-01-18T00:21:10.302Z,4.23
2018-01-18T00:23:38.690Z,4.23
2018-01-18T00:26:07.076Z,4.26
2018-01-18T00:28:35.446Z,4.22
2018-01-18T00:31:03.830Z,4.22
2018-01-18T00:33:33.161Z,4.24
2018-01-18T00:36:01.507Z,4.24
2018-01-18T00:38:29.907Z,4.25
2018-01-18T00:40:58.282Z,4.24
2018-01-18T00:43:26.668Z,4.23
2018-01-18T00:45:55.030Z,4.19
2018-01-18T00:48:25.233Z,4.23
2018-01-18T00:50:53.690Z,4.24
2018-01-18T00:53:22.019Z,4.28
2018-01-18T00:55:50.406Z,4.27
2018-01-18T00:58:18.788Z,4.19
2018-01-18T01:00:47.181Z,4.19
2018-01-18T01:03:15.564Z,4.22
2018-01-18T01:05:43.934Z,4.12
2018-01-18T01:08:12.306Z,4.15
2018-01-18T01:10:41.608Z,4.16
2018-01-18T01:13:09.969Z,4.17
2018-01-18T01:15:38.395Z,4.15
2018-01-18T01:18:06.716Z,4.21
2018-01-18T01:20:35.099Z,4.24
2018-01-18T01:23:03.503Z,4.24
2018-01-18T01:25:31.869Z,4.22
2018-01-18T01:28:00.270Z,4.22
2018-01-18T01:30:42.907Z,4.24
2018-01-18T01:33:11.811Z,4.28
2018-01-18T01:35:40.144Z,4.24
2018-01-18T01:38:08.538Z,4.21
2018-01-18T01:40:38.787Z,4.27
2018-01-18T01:43:07.441Z,4.29
2018-01-18T01:45:35.820Z,4.32
2018-01-18T01:48:04.234Z,4.40
2018-01-18T01:50:38.969Z,4.39
2018-01-18T01:53:07.436Z,4.46
2018-01-18T01:55:35.852Z,4.46
2018-01-18T01:58:05.102Z,4.49
2018-01-18T02:00:33.502Z,4.52
2018-01-18T02:03:01.868Z,4.53
2018-01-18T02:05:30.246Z,4.57
2018-01-18T02:07:58.630Z,4.55
2018-01-18T02:10:27.010Z,4.62
2018-01-18T02:12:55.383Z,4.59
2018-01-18T02:15:23.773Z,4.62
2018-01-18T02:17:52.125Z,4.66
2018-01-18T02:20:20.486Z,4.67
2018-01-18T02:22:48.863Z,4.71
2018-01-18T02:25:17.349Z,4.69
2018-01-18T02:27:45.623Z,4.65
2018-01-18T02:30:14.049Z,4.70
2018-01-18T02:32:42.424Z,4.71
2018-01-18T02:35:10.788Z,4.70
2018-01-18T02:37:39.187Z,4.73
2018-01-18T02:40:07.552Z,4.73
2018-01-18T02:42:35.966Z,4.75
2018-01-18T02:45:04.309Z,4.74
2018-01-18T02:47:32.709Z,4.76
2018-01-18T02:50:01.082Z,4.75
2018-01-18T02:52:31.287Z,4.79
2018-01-18T02:54:59.669Z,4.83
2018-01-18T02:57:28.053Z,4.80
2018-01-18T02:59:56.422Z,4.81
2018-01-18T03:02:24.842Z,4.82
2018-01-18T03:04:53.227Z,4.86
2018-01-18T03:07:21.565Z,4.89
2018-01-18T03:09:49.928Z,4.85
2018-01-18T03:12:18.339Z,4.83
2018-01-18T03:14:46.725Z,4.83
2018-01-18T03:17:15.070Z,4.82
2018-01-18T03:19:43.505Z,4.81
2018-01-18T03:22:11.849Z,4.83
2018-01-18T03:24:40.237Z,4.80
2018-01-18T03:27:08.938Z,4.78
2018-01-18T03:29:37.292Z,4.70
2018-01-18T03:32:06.873Z,4.73
2018-01-18T03:34:35.907Z,4.73
2018-01-18T03:37:04.295Z,4.69
2018-01-18T03:39:32.682Z,4.69
2018-01-18T03:42:01.050Z,4.64
2018-01-18T03:44:30.365Z,4.63
2018-01-18T03:46:58.738Z,4.57
2018-01-18T03:49:27.107Z,4.57
2018-01-18T03:51:55.516Z,4.58
2018-01-18T03:54:23.873Z,4.58
2018-01-18T03:56:52.231Z,4.59
2018-01-18T03:59:20.645Z,4.60
2018-01-18T04:01:49.004Z,4.58
2018-01-18T04:04:17.409Z,4.51
2018-01-18T04:06:45.800Z,4.43
2018-01-18T04:09:14.169Z,4.48
2018-01-18T04:11:42.517Z,4.42
2018-01-18T04:14:10.932Z,4.39
2018-01-18T04:16:39.297Z,4.40
2018-01-18T04:19:07.666Z,4.37
2018-01-18T04:21:36.059Z,4.31
2018-01-18T04:24:04.430Z,4.32
2018-01-18T04:26:32.832Z,4.31
2018-01-18T04:29:01.202Z,4.24
2018-01-18T04:31:29.574Z,4.25
2018-01-18T04:33:57.977Z,4.17
2018-01-18T04:36:26.326Z,4.14
2018-01-18T04:38:54.693Z,4.14
2018-01-18T04:41:23.093Z,4.09
2018-01-18T04:43:51.490Z,4.04
2018-01-18T04:46:19.911Z,3.87
2018-01-18T04:48:48.225Z,3.84
2018-01-18T04:51:16.598Z,3.88
2018-01-18T04:53:44.983Z,3.82
2018-01-18T04:56:13.362Z,3.90
2018-01-18T04:58:41.776Z,3.66
2018-01-18T05:01:10.102Z,3.69
2018-01-18T05:03:39.430Z,3.70
2018-01-18T05:06:07.813Z,3.74
2018-01-18T05:08:36.185Z,3.74
2018-01-18T05:11:04.562Z,3.76
2018-01-18T05:13:32.957Z,3.72
2018-01-18T05:16:01.331Z,3.68
2018-01-18T05:18:29.695Z,3.68
2018-01-18T05:20:58.082Z,3.73
2018-01-18T05:23:26.496Z,3.75
2018-01-18T05:25:54.849Z,3.69
2018-01-18T05:28:23.246Z,3.63
2018-01-18T05:30:51.608Z,3.70
2018-01-18T05:33:19.981Z,3.73
2018-01-18T05:35:48.365Z,3.74
2018-01-18T05:38:16.753Z,3.73
2018-01-18T05:40:45.135Z,3.75
2018-01-18T05:43:13.501Z,3.72
2018-01-18T05:45:41.893Z,3.74
2018-01-18T05:48:10.276Z,3.66
2018-01-18T05:50:38.687Z,3.65
2018-01-18T05:53:07.427Z,3.55
2018-01-18T05:55:35.704Z,3.59
2018-01-18T05:58:04.083Z,3.57
2018-01-18T06:00:32.505Z,3.51
2018-01-18T06:03:00.834Z,3.50
2018-01-18T06:05:29.233Z,3.46
2018-01-18T06:07:57.665Z,3.50
2018-01-18T06:10:26.007Z,3.54
2018-01-18T06:12:54.698Z,3.47
2018-01-18T06:15:23.082Z,3.47
2018-01-18T06:17:52.377Z,3.48
2018-01-18T06:20:20.761Z,3.46
2018-01-18T06:22:49.105Z,3.46
2018-01-18T06:25:17.542Z,3.44
2018-01-18T06:27:45.861Z,3.43
2018-01-18T06:30:14.279Z,3.37
2018-01-18T06:32:42.645Z,3.42
2018-01-18T06:35:11.047Z,3.37
2018-01-18T06:37:39.812Z,3.35
2018-01-18T06:40:08.105Z,3.35
2018-01-18T06:42:36.487Z,3.38
2018-01-18T06:45:04.877Z,3.44
2018-01-18T06:47:33.239Z,3.44
2018-01-18T06:50:01.592Z,3.44
2018-01-18T06:52:30.065Z,3.36
2018-01-18T06:54:58.359Z,3.38
2018-01-18T06:57:26.734Z,3.45
2018-01-18T06:59:55.160Z,3.42
2018-01-18T07:02:23.511Z,3.43
2018-01-18T07:04:52.823Z,3.43
2018-01-18T07:07:21.198Z,3.44
2018-01-18T07:09:49.568Z,3.47
2018-01-18T07:12:17.984Z,3.51
2018-01-18T07:14:46.304Z,3.52
2018-01-18T07:17:16.533Z,3.58
2018-01-18T07:19:44.948Z,3.60
2018-01-18T07:22:13.318Z,3.59
2018-01-18T07:24:41.725Z,3.61
2018-01-18T07:27:10.079Z,3.73
2018-01-18T07:29:38.484Z,3.73
2018-01-18T07:32:06.856Z,3.74
2018-01-18T07:34:35.246Z,3.80
2018-01-18T07:37:03.592Z,3.85
2018-01-18T07:39:31.992Z,3.86
2018-01-18T07:42:00.338Z,3.91
2018-01-18T07:44:29.225Z,3.93
2018-01-18T07:46:57.506Z,3.99
2018-01-18T07:49:26.748Z,4.05
2018-01-18T07:51:55.131Z,4.04
2018-01-18T07:54:23.515Z,4.11
2018-01-18T07:56:57.271Z,4.16
2018-01-18T07:59:25.527Z,4.20
2018-01-18T08:01:54.789Z,4.26
2018-01-18T08:04:26.938Z,4.33
2018-01-18T08:06:56.055Z,4.40
2018-01-18T08:09:24.539Z,4.50
2018-01-18T08:11:52.909Z,4.57
2018-01-18T08:14:21.297Z,4.63
2018-01-18T08:16:49.681Z,4.69
2018-01-18T08:19:18.050Z,4.77
2018-01-18T08:21:46.828Z,4.91
2018-01-18T08:24:15.121Z,5.01
2018-01-18T08:26:43.489Z,5.11
2018-01-18T08:29:11.905Z,5.24
2018-01-18T08:31:41.205Z,5.38
2018-01-18T08:34:09.868Z,5.51
2018-01-18T08:36:38.218Z,5.73
2018-01-18T08:39:06.618Z,5.79
2018-01-18T08:41:35.006Z,5.87
2018-01-18T08:44:03.374Z,6.00
2018-01-18T08:46:31.794Z,6.06
2018-01-18T08:49:00.137Z,6.17
2018-01-18T08:51:28.515Z,6.26
2018-01-18T08:53:56.916Z,6.34
2018-01-18T08:56:25.282Z,6.41
2018-01-18T08:58:54.597Z,6.45
2018-01-18T09:01:22.950Z,6.52
2018-01-18T09:03:51.325Z,6.62
2018-01-18T09:06:19.723Z,6.68
2018-01-18T09:08:48.109Z,6.76
2018-01-18T09:11:16.484Z,6.84
2018-01-18T09:13:44.867Z,6.97
2018-01-18T09:16:13.233Z,7.07
2018-01-18T09:18:41.656Z,7.09
2018-01-18T09:21:10.009Z,7.17
2018-01-18T09:23:38.397Z,7.30
2018-01-18T09:26:06.758Z,7.36
2018-01-18T09:28:35.448Z,7.46
2018-01-18T09:31:03.901Z,7.52
2018-01-18T09:33:32.182Z,7.66
2018-01-18T09:36:00.614Z,7.81
2018-01-18T09:38:28.944Z,7.75
2018-01-18T09:40:57.350Z,7.84
2018-01-18T09:43:25.744Z,7.89
2018-01-18T09:45:54.108Z,7.87
2018-01-18T09:48:22.489Z,7.91
2018-01-18T09:50:50.866Z,7.98
2018-01-18T09:53:19.245Z,8.06
2018-01-18T09:55:47.651Z,8.09
2018-01-18T09:58:16.307Z,8.21
2018-01-18T10:00:44.580Z,8.28
2018-01-18T10:03:12.885Z,8.31
2018-01-18T10:05:41.150Z,8.39
2018-01-18T10:08:09.427Z,8.44
2018-01-18T10:10:37.706Z,8.54
2018-01-18T10:13:05.980Z,8.62
2018-01-18T10:15:34.402Z,8.77
2018-01-18T10:18:02.658Z,8.86
2018-01-18T10:20:30.948Z,8.94
2018-01-18T10:22:59.222Z,8.93
2018-01-18T10:25:27.901Z,9.00
2018-01-18T10:27:56.184Z,9.03
2018-01-18T10:30:24.436Z,9.00
2018-01-18T10:32:52.732Z,9.09
2018-01-18T10:35:21.024Z,9.22
2018-01-18T10:37:49.892Z,9.23
2018-01-18T10:40:18.185Z,9.31
2018-01-18T10:42:47.468Z,9.32
2018-01-18T10:45:16.776Z,9.42
2018-01-18T10:47:45.149Z,9.48
2018-01-18T10:50:13.516Z,9.66
2018-01-18T10:52:41.810Z,9.69
2018-01-18T10:55:10.285Z,9.68
2018-01-18T10:57:38.662Z,9.75
2018-01-18T11:00:07.031Z,9.82
2018-01-18T11:02:35.430Z,9.91
2018-01-18T11:05:03.811Z,9.94
2018-01-18T11:07:32.203Z,9.95
2018-01-18T11:10:00.568Z,9.99
2018-01-18T11:12:28.947Z,9.96
2018-01-18T11:14:57.341Z,10.04
2018-01-18T11:17:25.702Z,10.09
2018-01-18T11:19:54.109Z,10.17
2018-01-18T11:22:22.466Z,10.21
2018-01-18T11:24:50.874Z,10.24
2018-01-18T11:27:19.240Z,10.20
2018-01-18T11:29:47.619Z,10.16
2018-01-18T11:32:15.999Z,10.15
2018-01-18T11:34:44.400Z,10.09
2018-01-18T11:37:12.738Z,10.10
2018-01-18T11:39:41.154Z,10.11
2018-01-18T11:42:09.496Z,10.10
2018-01-18T11:44:37.904Z,10.03
2018-01-18T11:47:06.292Z,10.07
2018-01-18T11:49:34.652Z,10.00
2018-01-18T11:52:03.023Z,10.01
2018-01-18T11:54:31.413Z,9.95
2018-01-18T11:56:59.675Z,10.06
2018-01-18T11:59:27.958Z,10.16
2018-01-18T12:01:56.247Z,10.28
2018-01-18T12:04:24.523Z,10.30
2018-01-18T12:06:53.004Z,10.28
2018-01-18T12:09:21.276Z,10.28
2018-01-18T12:11:49.792Z,10.27
2018-01-18T12:14:18.147Z,10.23
2018-01-18T12:16:46.529Z,10.29
2018-01-18T12:19:14.950Z,10.32
2018-01-18T12:21:43.300Z,10.24
2018-01-18T12:24:11.676Z,10.23
2018-01-18T12:26:40.046Z,10.22
2018-01-18T12:29:08.321Z,10.17
2018-01-18T12:31:36.796Z,10.13
2018-01-18T12:34:05.205Z,10.15
2018-01-18T12:36:33.590Z,10.18
2018-01-18T12:39:04.103Z,10.11
2018-01-18T12:41:32.506Z,10.13
2018-01-18T12:44:00.862Z,10.08
2018-01-18T13:34:31.377Z,10.23
2018-01-18T13:37:00.252Z,10.17
2018-01-18T13:39:28.564Z,10.15
2018-01-18T13:41:57.629Z,10.19
2018-01-18T13:44:25.914Z,10.21
2018-01-18T13:46:54.173Z,10.24
2018-01-18T13:49:22.458Z,10.16
2018-01-18T13:51:50.741Z,10.13
2018-01-18T13:54:19.011Z,10.21
2018-01-18T13:56:47.283Z,10.17
2018-01-18T13:59:15.563Z,10.07
2018-01-18T14:01:43.823Z,9.97
2018-01-18T14:04:14.129Z,9.84
2018-01-18T14:06:42.390Z,9.72
2018-01-18T14:09:10.686Z,9.66
2018-01-18T14:11:38.967Z,9.69
2018-01-18T14:14:07.237Z,9.64
2018-01-18T14:16:35.498Z,9.57
2018-01-18T14:19:04.511Z,9.43
2018-01-18T14:21:32.813Z,9.34
2018-01-18T14:24:01.106Z,9.30
2018-01-18T14:26:29.351Z,9.28
2018-01-18T14:28:57.628Z,9.19
2018-01-18T14:31:25.902Z,9.17
2018-01-18T14:33:55.251Z,9.17
2018-01-18T14:36:23.553Z,9.13
2018-01-18T14:38:51.820Z,9.08
2018-01-18T14:41:20.089Z,9.05
2018-01-18T14:43:48.331Z,8.95
2018-01-18T14:46:16.626Z,8.94
2018-01-18T14:48:44.903Z,8.91
2018-01-18T14:51:13.168Z,8.86
2018-01-18T14:53:41.451Z,8.86
2018-01-18T14:56:09.718Z,8.80
2018-01-18T14:58:41.531Z,8.82
2018-01-18T15:01:10.593Z,8.77
2018-01-18T15:03:39.825Z,8.66
2018-01-18T15:06:08.995Z,8.69
2018-01-18T15:08:41.818Z,8.66
2018-01-18T15:11:10.776Z,8.67
2018-01-18T15:13:39.774Z,8.67
2018-01-18T15:16:08.703Z,8.66
2018-01-18T15:18:41.760Z,8.64
2018-01-18T15:21:10.332Z,8.67
2018-01-18T15:23:38.858Z,8.56
2018-01-18T15:26:07.212Z,8.60
2018-01-18T15:28:35.486Z,8.62
2018-01-18T15:31:03.791Z,8.64
2018-01-18T15:33:32.060Z,8.60
2018-01-18T15:36:00.324Z,8.58
2018-01-18T15:38:28.617Z,8.62
2018-01-18T15:40:56.869Z,8.61
2018-01-18T15:43:25.152Z,8.57
2018-01-18T15:45:53.832Z,8.43
2018-01-18T15:48:22.104Z,8.42
2018-01-18T15:50:50.389Z,8.37
2018-01-18T15:53:18.645Z,8.32
2018-01-18T15:55:46.929Z,8.40
2018-01-18T15:58:15.191Z,8.34
2018-01-18T16:00:44.215Z,8.22
2018-01-18T16:03:12.506Z,8.26
2018-01-18T16:05:40.777Z,8.20
2018-01-18T16:08:09.083Z,8.24
2018-01-18T16:10:37.334Z,8.28
2018-01-18T16:13:06.064Z,8.19
2018-01-18T16:15:34.338Z,7.99
2018-01-18T16:18:02.612Z,7.96
2018-01-18T16:20:30.904Z,7.69
2018-01-18T16:22:59.935Z,7.62
2018-01-18T16:25:28.223Z,7.50
2018-01-18T16:27:56.918Z,7.48
2018-01-18T16:30:25.182Z,7.34
2018-01-18T16:32:54.009Z,7.22
2018-01-18T16:35:22.282Z,7.03
2018-01-18T16:37:50.537Z,6.91
2018-01-18T16:40:18.831Z,6.84
2018-01-18T16:42:47.513Z,6.80
2018-01-18T16:45:15.842Z,6.66
2018-01-18T16:47:44.120Z,6.53
2018-01-18T16:50:13.545Z,6.40
2018-01-18T16:52:41.832Z,6.30
2018-01-18T16:55:10.109Z,6.33
2018-01-18T16:57:38.466Z,6.33
2018-01-18T17:00:06.702Z,6.27
2018-01-18T17:02:35.010Z,6.21
2018-01-18T17:05:03.285Z,6.18
2018-01-18T17:07:32.314Z,6.07
2018-01-18T17:10:00.592Z,6.08
2018-01-18T17:12:29.636Z,5.91
2018-01-18T17:14:58.302Z,5.94
2018-01-18T17:17:26.988Z,5.84
2018-01-18T17:19:55.245Z,5.82
2018-01-18T17:22:23.517Z,5.85
2018-01-18T17:24:51.789Z,5.81
2018-01-18T17:27:20.038Z,5.79
2018-01-18T17:29:49.310Z,5.66
2018-01-18T17:32:17.618Z,5.59
2018-01-18T17:34:46.673Z,5.60
2018-01-18T17:37:14.935Z,5.51
2018-01-18T17:39:43.208Z,5.54
2018-01-18T17:42:12.017Z,5.27
2018-01-18T17:44:40.268Z,5.19
2018-01-18T17:47:08.582Z,5.28
2018-01-18T17:49:36.877Z,5.18
2018-01-18T17:52:05.161Z,5.32
2018-01-18T17:54:34.164Z,5.30
2018-01-18T17:57:02.900Z,5.24
2018-01-18T17:59:31.190Z,5.15
2018-01-18T18:02:00.265Z,5.13
2018-01-18T18:04:29.331Z,4.89
2018-01-18T18:06:58.866Z,4.98
2018-01-18T18:09:27.140Z,4.81
2018-01-18T18:11:55.417Z,4.86
2018-01-18T18:14:23.714Z,4.94
2018-01-18T18:16:51.996Z,4.97
2018-01-18T18:19:20.289Z,5.01
2018-01-18T18:21:48.591Z,4.95
2018-01-18T18:24:16.885Z,4.87
2018-01-18T18:26:45.149Z,4.82
2018-01-18T18:29:14.209Z,4.74
2018-01-18T18:31:42.473Z,4.71
2018-01-18T18:34:10.736Z,4.59
2018-01-18T18:36:39.443Z,4.71
2018-01-18T18:39:07.703Z,4.38
2018-01-18T18:41:36.716Z,4.58
2018-01-18T18:44:05.221Z,4.33
2018-01-18T18:46:33.546Z,4.34
2018-01-18T18:49:01.833Z,4.26
2018-01-18T18:51:30.135Z,4.23
2018-01-18T18:53:58.416Z,4.30
2018-01-18T18:56:26.707Z,4.08
2018-01-18T18:58:54.983Z,4.10
2018-01-18T19:01:23.276Z,3.99
2018-01-18T19:03:51.934Z,3.97
2018-01-18T19:06:20.619Z,3.99
2018-01-18T19:08:49.516Z,3.96
2018-01-18T19:11:17.783Z,3.90
2018-01-18T19:13:46.645Z,3.94
2018-01-18T19:16:16.504Z,4.10
2018-01-18T19:18:45.102Z,4.11
2018-01-18T19:21:13.423Z,4.06
2018-01-18T19:23:42.465Z,4.04
2018-01-18T19:26:10.726Z,4.12
2018-01-18T19:28:38.985Z,4.20
2018-01-18T19:31:07.588Z,4.18
2018-01-18T19:33:35.884Z,4.23
2018-01-18T19:36:04.273Z,4.22
2018-01-18T19:38:33.828Z,4.08
2018-01-18T19:41:02.090Z,4.21
2018-01-18T19:43:30.740Z,4.02
2018-01-18T19:45:59.017Z,3.95
2018-01-18T19:48:31.566Z,4.04
2018-01-18T19:51:00.360Z,4.18
2018-01-18T19:53:28.638Z,4.12
2018-01-18T19:55:56.934Z,4.02
2018-01-18T19:58:25.214Z,3.95
2018-01-18T20:00:53.496Z,3.87
2018-01-18T20:03:21.967Z,4.01
2018-01-18T20:05:50.298Z,4.01
2018-01-18T20:08:19.392Z,3.97
2018-01-18T20:10:48.495Z,4.05
2018-01-18T20:13:17.684Z,4.10
2018-01-18T20:15:46.730Z,4.00
2018-01-18T20:18:15.019Z,4.09
2018-01-18T20:20:43.296Z,3.99
2018-01-18T20:23:11.980Z,4.11
2018-01-18T20:25:40.260Z,4.12
2018-01-18T20:28:08.528Z,4.09
2018-01-18T20:30:36.823Z,4.11
2018-01-18T20:33:06.214Z,4.12
2018-01-18T20:35:34.512Z,4.26
2018-01-18T20:38:02.869Z,4.27
2018-01-18T20:40:31.176Z,4.39
2018-01-18T20:42:59.462Z,4.46
2018-01-18T20:45:27.753Z,4.45
2018-01-18T20:47:56.822Z,4.45
2018-01-18T20:50:25.915Z,4.44
2018-01-18T20:52:54.815Z,4.48
2018-01-18T20:55:23.092Z,4.37
2018-01-18T20:57:51.990Z,4.40
2018-01-18T21:00:20.288Z,4.46
2018-01-18T21:02:49.360Z,4.53
2018-01-18T21:05:17.652Z,4.45
2018-01-18T21:07:46.705Z,4.43
2018-01-18T21:10:15.012Z,4.39
2018-01-18T21:12:43.379Z,4.24
2018-01-18T21:15:11.666Z,4.29
2018-01-18T21:17:39.961Z,4.20
2018-01-18T21:20:08.220Z,4.27
2018-01-18T21:22:36.522Z,4.27
2018-01-18T21:25:06.498Z,4.33
2018-01-18T21:27:34.903Z,4.18
2018-01-18T21:30:03.248Z,4.34
2018-01-18T21:32:31.699Z,4.30
2018-01-18T21:35:00.012Z,4.26
2018-01-18T21:37:28.397Z,4.27
2018-01-18T21:39:57.923Z,4.29
2018-01-18T21:42:26.364Z,4.35
2018-01-18T21:44:54.737Z,4.40
2018-01-18T21:47:23.166Z,4.42
2018-01-18T21:49:55.217Z,4.41
2018-01-18T21:52:23.619Z,4.47
2018-01-18T21:54:51.957Z,4.48
2018-01-18T21:57:21.263Z,4.64
2018-01-18T21:59:49.661Z,4.59
2018-01-18T22:02:18.021Z,4.47
2018-01-18T22:04:47.326Z,4.41
2018-01-18T22:07:15.749Z,4.40
2018-01-18T22:09:44.079Z,4.44
2018-01-18T22:12:12.493Z,4.53
2018-01-18T22:14:40.855Z,4.53
2018-01-18T22:17:09.241Z,4.70
2018-01-18T22:19:39.449Z,4.80
2018-01-18T22:22:07.845Z,4.75
2018-01-18T22:24:36.234Z,4.80
2018-01-18T22:27:04.583Z,4.80
2018-01-18T22:29:32.987Z,4.76
2018-01-18T22:32:01.339Z,4.71
2018-01-18T22:34:29.742Z,4.68
2018-01-18T22:37:01.182Z,4.55
2018-01-18T22:39:32.955Z,4.54
2018-01-18T22:42:01.731Z,4.50
2018-01-18T22:44:30.903Z,4.48
2018-01-18T22:46:59.592Z,4.47
2018-01-18T22:49:28.020Z,4.30
2018-01-18T22:51:56.261Z,4.26
2018-01-18T22:54:24.755Z,4.33
2018-01-18T22:56:53.031Z,4.43
2018-01-18T22:59:21.531Z,4.25
2018-01-18T23:01:49.921Z,4.07
2018-01-18T23:04:21.936Z,4.08
2018-01-18T23:06:50.367Z,4.03
2018-01-18T23:09:18.706Z,4.11
2018-01-18T23:11:47.089Z,4.13
2018-01-18T23:14:17.829Z,4.17
2018-01-18T23:16:47.256Z,4.13
2018-01-18T23:19:15.621Z,4.09
2018-01-18T23:21:48.006Z,4.20
2018-01-18T23:24:16.389Z,4.03
2018-01-18T23:26:48.489Z,4.06
2018-01-18T23:29:17.244Z,3.96
2018-01-18T23:31:45.506Z,4.02
2018-01-18T23:34:13.865Z,3.89
2018-01-18T23:36:42.277Z,3.86
2018-01-18T23:39:10.665Z,3.98
2018-01-18T23:41:39.038Z,4.01
2018-01-18T23:44:11.698Z,4.14
2018-01-18T23:46:40.063Z,4.15
2018-01-18T23:49:08.495Z,4.09
2018-01-18T23:51:40.246Z,4.02
2018-01-18T23:54:08.623Z,4.23
2018-01-18T23:56:37.012Z,4.23
2018-01-18T23:59:08.741Z,4.26
